Time;durP1;ratioP1;P1;durP2;ratioP2;P2;SDS_P1;SDS_P2;PMS_P1;PMS_P2;Temp;Humidity;BMP_temperature;BMP_pressure;BME280_temperature;BME280_humidity;BME280_pressure;Samples;Min_cycle;Max_cycle;Signal;HPM_P1;HPM_P2
2022/08/29 00:00:42;;;;;;;7.72;2.35;;;10.60;99.90;;;;;;4985702;28;20026;-82
2022/08/29 00:03:07;;;;;;;9.73;2.95;;;10.50;99.90;;;;;;4984310;28;20034;-82
2022/08/29 00:05:36;;;;;;;12.05;2.83;;;10.60;99.90;;;;;;4988468;28;20025;-82
2022/08/29 00:08:03;;;;;;;8.43;2.50;;;10.50;99.90;;;;;;4993011;28;20038;-82
2022/08/29 00:10:31;;;;;;;7.78;2.42;;;10.40;99.90;;;;;;4989099;28;20041;-82
2022/08/29 00:12:56;;;;;;;7.55;2.53;;;10.30;99.90;;;;;;4984904;28;20497;-82
2022/08/29 00:15:22;;;;;;;10.27;2.58;;;10.30;99.90;;;;;;5003285;28;20030;-82
2022/08/29 00:17:49;;;;;;;9.02;2.83;;;10.30;99.90;;;;;;4993098;28;20621;-82
2022/08/29 00:20:18;;;;;;;7.80;2.67;;;10.30;99.90;;;;;;5007862;28;20039;-82
2022/08/29 00:22:44;;;;;;;8.68;2.42;;;10.30;99.90;;;;;;4994553;28;20057;-83
2022/08/29 00:25:12;;;;;;;9.77;2.72;;;10.20;99.90;;;;;;5003281;28;20034;-82
2022/08/29 00:27:37;;;;;;;7.45;2.35;;;10.20;99.90;;;;;;4983639;28;20023;-82
2022/08/29 00:30:05;;;;;;;11.68;3.05;;;10.20;99.90;;;;;;4992071;28;20031;-82
2022/08/29 00:32:35;;;;;;;8.65;2.70;;;10.30;99.90;;;;;;4987038;28;20034;-82
2022/08/29 00:35:11;;;;;;;9.98;2.60;;;10.20;99.90;;;;;;4979725;28;20037;-82
2022/08/29 00:37:36;;;;;;;8.65;2.83;;;10.30;99.90;;;;;;4991049;28;20030;-83
2022/08/29 00:40:06;;;;;;;8.95;2.75;;;10.30;99.90;;;;;;4991059;28;20037;-82
2022/08/29 00:42:34;;;;;;;10.30;2.83;;;10.30;99.90;;;;;;4993198;28;20018;-82
2022/08/29 00:45:00;;;;;;;11.65;2.55;;;10.30;99.90;;;;;;4993422;28;20050;-82
2022/08/29 00:47:32;;;;;;;9.95;2.60;;;10.30;99.90;;;;;;4990735;28;20026;-82
2022/08/29 00:50:00;;;;;;;8.43;2.80;;;10.30;99.90;;;;;;4995065;28;20418;-82
2022/08/29 00:52:38;;;;;;;11.50;2.85;;;10.20;99.90;;;;;;4986741;28;20034;-82
2022/08/29 00:55:12;;;;;;;7.22;2.53;;;10.20;99.90;;;;;;4988263;28;20080;-83
2022/08/29 00:57:42;;;;;;;6.53;2.42;;;10.10;99.90;;;;;;4985700;28;20738;-83
2022/08/29 01:00:09;;;;;;;7.22;2.63;;;10.10;99.90;;;;;;4991916;28;20490;-83
2022/08/29 01:02:36;;;;;;;11.18;3.08;;;10.10;99.90;;;;;;4990182;28;20231;-83
2022/08/29 01:05:02;;;;;;;8.63;2.53;;;10.10;99.90;;;;;;4986852;28;20558;-83
2022/08/29 01:07:27;;;;;;;8.55;2.75;;;10.20;99.90;;;;;;4986238;28;20058;-83
2022/08/29 01:09:53;;;;;;;6.85;2.35;;;10.20;99.90;;;;;;4998002;28;20447;-83
2022/08/29 01:12:22;;;;;;;7.03;2.28;;;10.10;99.90;;;;;;4982572;28;20582;-83
2022/08/29 01:14:58;;;;;;;7.55;2.38;;;10.00;99.90;;;;;;4993326;28;20023;-83
2022/08/29 01:17:40;;;;;;;10.70;2.95;;;10.00;99.90;;;;;;4987207;28;20502;-83
2022/08/29 01:20:18;;;;;;;8.05;2.80;;;10.00;99.90;;;;;;4984052;28;20455;-83
2022/08/29 01:22:55;;;;;;;8.10;2.60;;;9.80;99.90;;;;;;5001947;28;20417;-83
2022/08/29 01:25:24;;;;;;;7.70;2.50;;;9.80;99.90;;;;;;5002955;28;20022;-83
2022/08/29 01:27:58;;;;;;;9.50;2.78;;;9.70;99.90;;;;;;4985085;28;20023;-83
2022/08/29 01:30:24;;;;;;;8.05;2.70;;;9.70;99.90;;;;;;4990597;28;20495;-83
2022/08/29 01:32:50;;;;;;;7.18;2.50;;;9.70;99.90;;;;;;4982991;28;20030;-83
2022/08/29 01:35:16;;;;;;;9.73;2.70;;;9.70;99.90;;;;;;4989363;28;20726;-83
2022/08/29 01:37:43;;;;;;;8.93;2.83;;;9.70;99.90;;;;;;4991521;28;20042;-83
2022/08/29 01:40:10;;;;;;;6.78;2.58;;;9.60;99.90;;;;;;4986162;28;20026;-83
2022/08/29 01:42:36;;;;;;;8.10;2.63;;;9.60;99.90;;;;;;4989138;28;20022;-83
2022/08/29 01:45:04;;;;;;;9.63;2.85;;;9.60;99.90;;;;;;4992274;28;20034;-83
2022/08/29 01:47:34;;;;;;;10.88;2.72;;;9.70;99.90;;;;;;4985583;28;20031;-83
2022/08/29 01:50:00;;;;;;;6.78;2.45;;;9.70;99.90;;;;;;4980232;28;20054;-83
2022/08/29 01:52:26;;;;;;;9.50;2.75;;;9.70;99.90;;;;;;4985062;28;20038;-83
2022/08/29 01:54:52;;;;;;;7.55;2.53;;;9.60;99.90;;;;;;4981953;28;20042;-83
2022/08/29 01:57:18;;;;;;;6.63;2.40;;;9.60;99.90;;;;;;4985640;28;20030;-83
2022/08/29 01:59:45;;;;;;;10.30;2.70;;;9.50;99.90;;;;;;4984091;28;20035;-84
2022/08/29 02:02:19;;;;;;;11.15;2.70;;;9.50;99.90;;;;;;4985592;28;20471;-83
2022/08/29 02:04:47;;;;;;;8.45;2.63;;;9.50;99.90;;;;;;4989426;28;20541;-83
2022/08/29 02:07:16;;;;;;;8.20;2.63;;;9.50;99.90;;;;;;4993207;28;20082;-83
2022/08/29 02:09:42;;;;;;;8.13;2.72;;;9.40;99.90;;;;;;4983801;28;20050;-83
2022/08/29 02:12:08;;;;;;;8.18;2.75;;;9.30;99.90;;;;;;4987741;28;20038;-83
2022/08/29 02:14:34;;;;;;;8.45;2.95;;;9.30;99.90;;;;;;4988396;28;20038;-83
2022/08/29 02:17:02;;;;;;;7.18;3.00;;;9.20;99.90;;;;;;4986332;28;20487;-83
2022/08/29 02:19:28;;;;;;;7.55;2.50;;;9.20;99.90;;;;;;4977138;28;20121;-83
2022/08/29 02:21:53;;;;;;;9.55;2.80;;;9.20;99.90;;;;;;4977632;28;20121;-83
2022/08/29 02:24:19;;;;;;;10.40;2.90;;;9.10;99.90;;;;;;5005137;28;20035;-83
2022/08/29 02:26:45;;;;;;;11.65;3.15;;;9.10;99.90;;;;;;4983972;28;20475;-83
2022/08/29 02:29:14;;;;;;;9.43;3.20;;;9.10;99.90;;;;;;4992260;28;20403;-83
2022/08/29 02:31:41;;;;;;;9.13;3.25;;;9.10;99.90;;;;;;4990970;28;20031;-83
2022/08/29 02:34:08;;;;;;;12.15;3.40;;;9.00;99.90;;;;;;4989932;28;20531;-83
2022/08/29 02:36:35;;;;;;;10.05;2.70;;;9.00;99.90;;;;;;5001322;28;20042;-83
2022/08/29 02:39:01;;;;;;;8.70;2.80;;;8.90;99.90;;;;;;4985000;28;20026;-83
2022/08/29 02:41:26;;;;;;;7.70;3.00;;;8.90;99.90;;;;;;4983656;28;20027;-83
2022/08/29 02:43:52;;;;;;;9.25;2.95;;;8.90;99.90;;;;;;4988557;28;20571;-83
2022/08/29 02:46:19;;;;;;;8.38;2.90;;;8.80;99.90;;;;;;4995106;28;20431;-83
2022/08/29 02:48:46;;;;;;;8.43;3.00;;;8.90;99.90;;;;;;4993873;28;20042;-83
2022/08/29 02:51:38;;;;;;;9.30;2.90;;;8.90;99.90;;;;;;4996887;28;20018;-83
2022/08/29 02:54:04;;;;;;;8.35;2.80;;;9.00;99.90;;;;;;4981601;28;20100;-83
2022/08/29 02:56:29;;;;;;;9.00;3.45;;;9.00;99.90;;;;;;4986135;28;20483;-83
2022/08/29 02:58:56;;;;;;;6.75;2.80;;;8.90;99.90;;;;;;5009184;28;20053;-83
2022/08/29 03:01:23;;;;;;;10.32;3.50;;;9.00;99.90;;;;;;4981783;28;20031;-83
2022/08/29 03:03:50;;;;;;;8.02;2.83;;;9.10;99.90;;;;;;4989977;28;20054;-83
2022/08/29 03:06:17;;;;;;;10.35;2.92;;;8.90;99.90;;;;;;4994913;28;20144;-83
2022/08/29 03:08:43;;;;;;;8.00;2.83;;;8.90;99.90;;;;;;4995609;28;20031;-83
2022/08/29 03:11:09;;;;;;;8.25;2.85;;;9.00;99.90;;;;;;4990948;28;20032;-83
2022/08/29 03:13:36;;;;;;;10.82;2.78;;;8.90;99.90;;;;;;4996712;28;20031;-83
2022/08/29 03:16:02;;;;;;;8.73;3.28;;;8.80;99.90;;;;;;4985653;28;20082;-83
2022/08/29 03:18:28;;;;;;;10.10;3.30;;;8.80;99.90;;;;;;5002218;28;20406;-83
2022/08/29 03:20:55;;;;;;;11.18;3.22;;;8.80;99.90;;;;;;4980571;28;20619;-83
2022/08/29 03:23:20;;;;;;;10.95;3.30;;;8.90;99.90;;;;;;4995919;28;20026;-83
2022/08/29 03:25:46;;;;;;;9.57;2.95;;;8.90;99.90;;;;;;4988337;28;20031;-84
2022/08/29 03:28:12;;;;;;;8.40;3.03;;;8.90;99.90;;;;;;4992422;28;20033;-83
2022/08/29 03:30:38;;;;;;;7.57;3.10;;;8.70;99.90;;;;;;4996633;28;20056;-83
2022/08/29 03:33:04;;;;;;;8.63;3.28;;;8.70;99.90;;;;;;4989492;28;20519;-83
2022/08/29 03:35:30;;;;;;;9.45;3.33;;;8.70;99.90;;;;;;4988726;28;20045;-83
2022/08/29 03:37:56;;;;;;;10.93;3.55;;;8.60;99.90;;;;;;4997590;28;20030;-83
2022/08/29 03:40:23;;;;;;;10.20;3.17;;;8.70;99.90;;;;;;4987388;28;20077;-83
2022/08/29 03:42:49;;;;;;;9.05;3.47;;;8.70;99.90;;;;;;4995200;28;20086;-83
2022/08/29 03:45:17;;;;;;;12.45;3.35;;;8.70;99.90;;;;;;4986991;28;20447;-83
2022/08/29 03:47:43;;;;;;;11.05;3.40;;;8.60;99.90;;;;;;4997058;28;20049;-83
2022/08/29 03:50:11;;;;;;;11.85;3.40;;;8.60;99.90;;;;;;4987479;28;20422;-83
2022/08/29 03:52:38;;;;;;;9.23;3.17;;;8.60;99.90;;;;;;4997334;28;20076;-83
2022/08/29 03:55:06;;;;;;;11.15;3.15;;;8.60;99.90;;;;;;4989879;28;20518;-83
2022/08/29 03:57:33;;;;;;;10.63;3.22;;;8.60;99.90;;;;;;4984052;28;20631;-83
2022/08/29 04:00:00;;;;;;;9.27;3.25;;;8.60;99.90;;;;;;4988799;28;20022;-83
2022/08/29 04:02:26;;;;;;;9.07;3.40;;;8.60;99.90;;;;;;4988148;28;20030;-83
2022/08/29 04:05:06;;;;;;;10.52;3.67;;;8.60;99.90;;;;;;4981766;28;20611;-83
2022/08/29 04:07:55;;;;;;;9.13;3.65;;;8.60;99.90;;;;;;4989918;28;20050;-83
2022/08/29 04:10:30;;;;;;;12.07;3.72;;;8.70;99.90;;;;;;4985903;28;20069;-83
2022/08/29 04:12:56;;;;;;;14.02;3.90;;;8.70;99.90;;;;;;4992452;28;20022;-83
2022/08/29 04:15:23;;;;;;;11.40;3.80;;;8.70;99.90;;;;;;4992838;28;20494;-83
2022/08/29 04:17:54;;;;;;;9.75;3.20;;;8.70;99.90;;;;;;4989896;28;20765;-83
2022/08/29 04:20:27;;;;;;;12.85;3.55;;;8.60;99.90;;;;;;4981912;28;20027;-83
2022/08/29 04:22:55;;;;;;;9.98;3.53;;;8.60;99.90;;;;;;4997440;28;20470;-83
2022/08/29 04:25:22;;;;;;;11.68;3.50;;;8.60;99.90;;;;;;4981581;28;20022;-83
2022/08/29 04:27:48;;;;;;;9.25;3.47;;;8.60;99.90;;;;;;4980848;28;20034;-83
2022/08/29 04:30:17;;;;;;;12.75;3.85;;;8.70;99.90;;;;;;4981075;28;20466;-83
2022/08/29 04:32:43;;;;;;;8.45;3.40;;;8.60;99.90;;;;;;4980228;28;20034;-83
2022/08/29 04:35:11;;;;;;;10.27;3.55;;;8.80;99.90;;;;;;4987854;28;20038;-83
2022/08/29 04:37:37;;;;;;;10.18;3.30;;;8.80;99.90;;;;;;4983515;28;20082;-82
2022/08/29 04:40:03;;;;;;;11.13;3.88;;;8.70;99.90;;;;;;4989756;28;20065;-83
2022/08/29 04:42:30;;;;;;;13.25;3.75;;;8.70;99.90;;;;;;4980761;28;20439;-82
2022/08/29 04:44:56;;;;;;;11.88;3.75;;;8.70;99.90;;;;;;4987767;28;20065;-83
2022/08/29 04:47:22;;;;;;;11.77;3.45;;;8.80;99.90;;;;;;4988984;28;20062;-82
2022/08/29 04:49:54;;;;;;;11.57;3.47;;;8.80;99.90;;;;;;4992814;28;20104;-83
2022/08/29 04:52:20;;;;;;;10.65;4.07;;;8.70;99.90;;;;;;4993074;28;20034;-83
2022/08/29 04:54:45;;;;;;;12.05;3.85;;;8.80;99.90;;;;;;4989297;28;20631;-83
2022/08/29 04:57:11;;;;;;;13.05;3.88;;;8.90;99.90;;;;;;5000547;28;20031;-82
2022/08/29 04:59:37;;;;;;;10.82;3.53;;;8.90;99.90;;;;;;4989247;28;20037;-83
2022/08/29 05:02:03;;;;;;;12.02;3.45;;;8.90;99.90;;;;;;4985333;28;20073;-83
2022/08/29 05:04:28;;;;;;;10.02;4.00;;;8.90;99.90;;;;;;4991528;28;20033;-83
2022/08/29 05:06:54;;;;;;;8.88;3.40;;;8.90;99.90;;;;;;4993221;28;20629;-83
2022/08/29 05:09:20;;;;;;;10.15;3.50;;;9.00;99.90;;;;;;4984209;28;20030;-82
2022/08/29 05:11:46;;;;;;;15.07;3.85;;;9.00;99.90;;;;;;4994202;28;20026;-83
2022/08/29 05:14:12;;;;;;;11.45;4.07;;;9.20;99.90;;;;;;4991322;28;20770;-83
2022/08/29 05:16:39;;;;;;;9.70;3.67;;;9.30;99.90;;;;;;4997904;28;20034;-83
2022/08/29 05:19:06;;;;;;;12.73;4.00;;;9.40;99.90;;;;;;4979554;28;20371;-83
2022/08/29 05:21:34;;;;;;;13.38;4.15;;;9.50;99.90;;;;;;4977048;28;20023;-83
2022/08/29 05:24:00;;;;;;;11.30;4.30;;;9.60;99.90;;;;;;4985135;28;20559;-83
2022/08/29 05:26:35;;;;;;;12.55;4.15;;;9.60;99.90;;;;;;4991033;28;20023;-83
2022/08/29 05:29:02;;;;;;;14.70;4.28;;;9.70;99.90;;;;;;4987135;28;20023;-83
2022/08/29 05:31:28;;;;;;;12.45;4.40;;;9.70;99.90;;;;;;4986558;28;20021;-83
2022/08/29 05:33:54;;;;;;;8.68;3.70;;;9.80;99.90;;;;;;4989307;28;20045;-83
2022/08/29 05:36:20;;;;;;;11.98;4.30;;;9.90;99.90;;;;;;4984502;28;20081;-83
2022/08/29 05:38:46;;;;;;;12.60;4.28;;;10.00;99.90;;;;;;4986870;28;20030;-82
2022/08/29 05:41:11;;;;;;;9.73;4.22;;;10.10;99.90;;;;;;4989063;28;20033;-82
2022/08/29 05:43:37;;;;;;;11.07;3.92;;;10.20;99.90;;;;;;4987997;28;20034;-82
2022/08/29 05:46:05;;;;;;;12.85;4.55;;;10.40;99.90;;;;;;4988069;28;20689;-82
2022/08/29 05:48:32;;;;;;;10.68;4.28;;;10.50;99.90;;;;;;4988171;28;20054;-83
2022/08/29 05:50:59;;;;;;;11.32;4.63;;;10.60;99.90;;;;;;4988983;28;20056;-82
2022/08/29 05:53:33;;;;;;;9.88;4.13;;;10.70;99.90;;;;;;4983970;28;20035;-83
2022/08/29 05:55:59;;;;;;;12.20;4.30;;;10.70;99.90;;;;;;4980171;28;20026;-81
2022/08/29 05:58:27;;;;;;;11.40;4.03;;;10.80;99.90;;;;;;4988586;28;20026;-82
2022/08/29 06:00:52;;;;;;;11.32;4.40;;;10.90;99.90;;;;;;4986743;28;20076;-82
2022/08/29 06:03:18;;;;;;;10.13;3.92;;;11.10;99.90;;;;;;4988468;28;20030;-83
2022/08/29 06:05:50;;;;;;;9.60;3.90;;;11.20;99.90;;;;;;4983385;28;20035;-82
2022/08/29 06:08:15;;;;;;;12.18;4.22;;;11.30;99.90;;;;;;4990057;28;20030;-82
2022/08/29 06:10:43;;;;;;;10.80;3.63;;;11.40;99.90;;;;;;4989660;28;20019;-82
2022/08/29 06:13:10;;;;;;;12.95;4.25;;;11.60;99.90;;;;;;4990068;28;20054;-83
2022/08/29 06:15:35;;;;;;;11.43;4.10;;;11.70;99.90;;;;;;4990838;28;20045;-82
2022/08/29 06:18:01;;;;;;;12.55;3.95;;;11.70;99.90;;;;;;4989106;28;20034;-83
2022/08/29 06:20:27;;;;;;;10.73;4.28;;;11.80;99.90;;;;;;4986263;28;20033;-82
2022/08/29 06:22:53;;;;;;;11.57;3.95;;;11.90;99.90;;;;;;4985745;28;20121;-83
2022/08/29 06:25:19;;;;;;;10.93;4.22;;;12.00;99.90;;;;;;4982297;28;20455;-84
2022/08/29 06:27:44;;;;;;;9.35;3.75;;;12.10;99.90;;;;;;4980430;28;20030;-84
2022/08/29 06:30:10;;;;;;;10.32;4.10;;;12.20;99.90;;;;;;4982262;28;20023;-83
2022/08/29 06:32:36;;;;;;;10.80;3.92;;;12.40;99.90;;;;;;4984530;28;20027;-84
2022/08/29 06:35:02;;;;;;;12.70;4.43;;;12.60;99.90;;;;;;4987927;28;20583;-84
2022/08/29 06:37:27;;;;;;;10.30;4.55;;;12.70;99.90;;;;;;4987102;28;20037;-84
2022/08/29 06:39:53;;;;;;;11.57;4.38;;;12.90;99.90;;;;;;4982056;28;20034;-84
2022/08/29 06:42:22;;;;;;;13.95;4.32;;;13.10;99.90;;;;;;4988427;28;20029;-83
2022/08/29 06:44:48;;;;;;;12.23;4.30;;;13.30;99.90;;;;;;4985729;28;20027;-84
2022/08/29 06:47:14;;;;;;;12.18;4.35;;;13.60;99.90;;;;;;4986538;28;20038;-84
2022/08/29 06:49:40;;;;;;;11.35;4.40;;;13.80;99.90;;;;;;4979363;28;20058;-84
2022/08/29 06:52:05;;;;;;;13.90;4.78;;;14.10;99.90;;;;;;4992413;28;20022;-84
2022/08/29 06:54:31;;;;;;;11.60;3.83;;;14.30;99.90;;;;;;4992031;28;20031;-84
2022/08/29 06:56:58;;;;;;;9.63;3.70;;;14.60;99.90;;;;;;4995105;28;20030;-84
2022/08/29 06:59:25;;;;;;;9.93;3.90;;;14.80;99.90;;;;;;4990210;28;20029;-84
2022/08/29 07:01:51;;;;;;;10.88;4.28;;;15.10;99.90;;;;;;4991947;28;20069;-83
2022/08/29 07:04:17;;;;;;;9.07;3.58;;;15.40;99.90;;;;;;4994866;28;20026;-83
2022/08/29 07:06:43;;;;;;;10.32;3.72;;;15.50;99.90;;;;;;4975517;28;20046;-83
2022/08/29 07:09:10;;;;;;;12.13;4.15;;;15.50;99.90;;;;;;4987783;28;20026;-83
2022/08/29 07:11:38;;;;;;;10.50;3.67;;;15.60;99.90;;;;;;4992801;28;20062;-83
2022/08/29 07:14:04;;;;;;;9.88;3.30;;;15.80;99.90;;;;;;4991052;28;20038;-84
2022/08/29 07:16:32;;;;;;;11.88;3.55;;;15.80;99.90;;;;;;4991931;28;20136;-84
2022/08/29 07:18:59;;;;;;;13.43;3.40;;;16.00;99.90;;;;;;4979717;28;20026;-84
2022/08/29 07:21:26;;;;;;;9.05;3.75;;;16.00;99.90;;;;;;4988996;28;20046;-83
2022/08/29 07:23:53;;;;;;;7.75;3.10;;;16.00;99.90;;;;;;4974102;28;20055;-83
2022/08/29 07:26:22;;;;;;;13.25;3.63;;;16.00;99.90;;;;;;4990591;28;20690;-83
2022/08/29 07:28:50;;;;;;;9.95;2.85;;;16.00;99.90;;;;;;4973737;28;20026;-83
2022/08/29 07:31:16;;;;;;;8.07;2.80;;;15.90;99.90;;;;;;4967299;28;20054;-83
2022/08/29 07:33:42;;;;;;;12.88;2.90;;;16.10;99.90;;;;;;4981431;28;20038;-83
2022/08/29 07:36:08;;;;;;;8.65;2.75;;;16.20;99.90;;;;;;4983663;28;20026;-84
2022/08/29 07:38:34;;;;;;;11.70;3.75;;;16.40;99.90;;;;;;4995628;28;20641;-84
2022/08/29 07:41:05;;;;;;;9.70;2.97;;;16.30;99.90;;;;;;4983071;28;20587;-83
2022/08/29 07:43:31;;;;;;;10.13;2.72;;;16.40;99.90;;;;;;4998311;28;20106;-83
2022/08/29 07:45:56;;;;;;;11.25;2.88;;;16.50;99.90;;;;;;4993676;28;20468;-83
2022/08/29 07:48:24;;;;;;;13.82;3.08;;;16.60;99.90;;;;;;4992836;28;20118;-83
2022/08/29 07:50:50;;;;;;;10.20;3.05;;;16.60;99.90;;;;;;4997550;28;20117;-84
2022/08/29 07:53:17;;;;;;;9.73;2.58;;;16.80;99.90;;;;;;4994566;28;20062;-83
2022/08/29 07:55:43;;;;;;;9.00;2.60;;;16.70;99.90;;;;;;4983678;28;20549;-83
2022/08/29 07:58:09;;;;;;;12.88;3.03;;;16.80;99.90;;;;;;4990970;28;20360;-83
2022/08/29 08:00:35;;;;;;;9.75;2.67;;;16.90;99.90;;;;;;4985306;28;20038;-83
2022/08/29 08:03:00;;;;;;;9.55;2.53;;;17.10;99.90;;;;;;4995018;28;20041;-83
2022/08/29 08:05:26;;;;;;;9.00;2.50;;;17.40;99.90;;;;;;4984552;28;20022;-83
2022/08/29 08:07:52;;;;;;;9.60;3.28;;;17.70;99.90;;;;;;5004378;28;20564;-83
2022/08/29 08:10:19;;;;;;;9.15;2.65;;;18.10;99.90;;;;;;4983531;28;20027;-84
2022/08/29 08:12:46;;;;;;;7.00;2.20;;;18.40;99.90;;;;;;5000520;28;20046;-84
2022/08/29 08:15:13;;;;;;;7.78;2.40;;;18.60;99.90;;;;;;4994860;28;20034;-84
2022/08/29 08:17:39;;;;;;;11.32;2.50;;;18.80;99.90;;;;;;4993824;28;20073;-83
2022/08/29 08:20:06;;;;;;;11.00;2.33;;;18.80;99.90;;;;;;4985417;28;20110;-84
2022/08/29 08:22:33;;;;;;;6.47;2.00;;;19.40;99.90;;;;;;5008360;28;20097;-84
2022/08/29 08:24:58;;;;;;;7.03;2.30;;;19.60;99.90;;;;;;4993585;28;20031;-84
2022/08/29 08:27:24;;;;;;;8.23;2.10;;;19.90;99.90;;;;;;5013025;28;20042;-84
2022/08/29 08:29:50;;;;;;;9.45;2.47;;;20.20;99.90;;;;;;4983460;28;20045;-84
2022/08/29 08:32:15;;;;;;;9.48;2.10;;;20.30;99.90;;;;;;4990671;28;20161;-84
2022/08/29 08:34:41;;;;;;;8.95;2.08;;;20.10;99.90;;;;;;4987435;28;20037;-84
2022/08/29 08:37:08;;;;;;;8.50;2.40;;;20.20;99.90;;;;;;4988071;28;20582;-84
2022/08/29 08:39:34;;;;;;;8.30;2.40;;;20.30;99.90;;;;;;4987310;28;20121;-84
2022/08/29 08:42:10;;;;;;;10.45;2.47;;;20.20;99.90;;;;;;4983221;28;20030;-84
2022/08/29 08:45:04;;;;;;;7.57;2.10;;;19.60;99.90;;;;;;4989053;28;20065;-84
2022/08/29 08:47:38;;;;;;;10.40;2.45;;;19.70;99.90;;;;;;4992014;28;20092;-84
2022/08/29 08:50:22;;;;;;;9.23;2.40;;;20.90;99.90;;;;;;4987693;28;20030;-84
2022/08/29 08:53:09;;;;;;;10.60;2.40;;;22.70;97.00;;;;;;5002036;28;20026;-84
2022/08/29 08:55:48;;;;;;;8.63;2.15;;;23.70;93.60;;;;;;4988405;28;20045;-85
2022/08/29 08:58:32;;;;;;;7.60;1.90;;;23.90;92.80;;;;;;4996371;28;20053;-84
2022/08/29 09:01:22;;;;;;;9.68;2.15;;;24.10;92.10;;;;;;4996319;28;20046;-84
2022/08/29 09:04:00;;;;;;;;;;;23.10;92.30;;;;;;4986837;28;20459;-84
2022/08/29 09:06:35;;;;;;;10.15;2.20;;;21.90;93.50;;;;;;5005419;28;19922;-84
2022/08/29 09:09:08;;;;;;;7.50;2.10;;;22.30;94.30;;;;;;4988835;28;20062;-84
2022/08/29 09:12:04;;;;;;;11.07;3.58;;;22.10;94.10;;;;;;5007819;28;20034;-83
2022/08/29 09:14:53;;;;;;;12.60;4.10;;;22.20;93.40;;;;;;4989212;28;20045;-84
2022/08/29 09:17:26;;;;;;;9.57;3.60;;;22.30;94.30;;;;;;4996679;28;20034;-84
2022/08/29 09:19:56;;;;;;;12.98;4.85;;;22.50;93.60;;;;;;4995079;28;20034;-84
2022/08/29 09:22:26;;;;;;;;;;;22.10;94.20;;;;;;4995786;28;20027;-84
2022/08/29 09:25:12;;;;;;;;;;;23.10;93.50;;;;;;4988127;28;20374;-84
2022/08/29 09:27:38;;;;;;;8.43;3.15;;;23.10;92.20;;;;;;5006012;28;20016;-84
2022/08/29 09:30:12;;;;;;;9.75;3.30;;;22.20;93.30;;;;;;4991941;28;20031;-84
2022/08/29 09:32:51;;;;;;;9.82;2.97;;;22.70;93.10;;;;;;4988672;28;20090;-84
2022/08/29 09:35:23;;;;;;;9.75;3.30;;;22.90;91.40;;;;;;5004642;28;20566;-84
2022/08/29 09:38:05;;;;;;;9.68;3.70;;;22.80;92.70;;;;;;4991115;28;20022;-84
2022/08/29 09:40:48;;;;;;;9.73;3.35;;;23.70;90.90;;;;;;4991254;28;20879;-84
2022/08/29 09:43:40;;;;;;;10.40;3.05;;;24.00;90.50;;;;;;4990640;28;20110;-84
2022/08/29 09:46:17;;;;;;;10.10;3.00;;;23.10;91.00;;;;;;4991008;28;20066;-84
2022/08/29 09:48:46;;;;;;;10.90;3.30;;;22.00;93.00;;;;;;4992326;28;20050;-84
2022/08/29 09:51:32;;;;;;;12.10;3.00;;;21.80;94.30;;;;;;4998726;28;20054;-84
2022/08/29 09:54:12;;;;;;;11.13;2.63;;;22.10;94.20;;;;;;4988760;28;20088;-85
2022/08/29 09:57:08;;;;;;;8.23;2.20;;;22.80;92.50;;;;;;4989672;28;20069;-85
2022/08/29 09:59:38;;;;;;;7.28;2.33;;;23.70;91.90;;;;;;4982384;28;20074;-85
2022/08/29 10:02:26;;;;;;;9.15;2.38;;;24.70;89.40;;;;;;4991414;28;20057;-84
2022/08/29 10:05:06;;;;;;;7.45;2.03;;;23.60;90.40;;;;;;4987003;28;20366;-84
2022/08/29 10:07:49;;;;;;;9.70;2.38;;;24.90;87.20;;;;;;4990074;28;20042;-86
2022/08/29 10:10:19;;;;;;;11.73;2.10;;;26.70;84.00;;;;;;4986757;28;20056;-85
2022/08/29 10:13:21;;;;;;;6.22;1.88;;;27.20;81.70;;;;;;4986406;28;20034;-84
2022/08/29 10:15:57;;;;;;;7.85;2.00;;;26.60;81.00;;;;;;4984784;28;20133;-84
2022/08/29 10:18:51;;;;;;;8.35;2.30;;;25.70;81.20;;;;;;4986288;28;20030;-85
2022/08/29 10:21:51;;;;;;;8.98;2.03;;;26.10;80.00;;;;;;4997342;28;20031;-84
2022/08/29 10:24:17;;;;;;;9.68;2.17;;;25.50;81.20;;;;;;4997464;28;20035;-84
2022/08/29 10:26:54;;;;;;;6.65;2.05;;;24.70;82.10;;;;;;4989787;28;20022;-84
2022/08/29 10:29:29;;;;;;;8.38;2.30;;;24.50;82.70;;;;;;4986645;28;20030;-84
2022/08/29 10:32:01;;;;;;;13.60;3.00;;;23.70;85.00;;;;;;4983920;28;20030;-84
2022/08/29 10:34:51;;;;;;;7.80;2.10;;;24.60;85.20;;;;;;4995982;28;20045;-85
2022/08/29 10:37:40;;;;;;;8.80;2.20;;;25.00;83.20;;;;;;4987560;28;20395;-85
2022/08/29 10:40:25;;;;;;;10.93;2.38;;;26.40;80.10;;;;;;4990455;28;20542;-84
2022/08/29 10:43:05;;;;;;;9.05;2.00;;;26.30;79.20;;;;;;4988470;28;20041;-84
2022/08/29 10:45:52;;;;;;;10.13;2.30;;;25.80;79.00;;;;;;4984668;28;20113;-84
2022/08/29 10:48:29;;;;;;;7.47;1.92;;;26.80;77.90;;;;;;4988693;28;20078;-84
2022/08/29 10:51:20;;;;;;;8.05;1.90;;;26.60;78.50;;;;;;4993381;28;20054;-84
2022/08/29 10:53:56;;;;;;;7.45;1.85;;;27.40;76.00;;;;;;4988060;28;20034;-85
2022/08/29 10:56:37;;;;;;;7.63;2.05;;;26.50;77.20;;;;;;4989918;28;20054;-84
2022/08/29 10:59:17;;;;;;;11.38;2.17;;;26.60;76.40;;;;;;4988790;28;20058;-84
2022/08/29 11:01:58;;;;;;;10.68;2.33;;;26.20;76.10;;;;;;4992946;28;20117;-84
2022/08/29 11:04:37;;;;;;;9.98;2.35;;;26.30;77.50;;;;;;4986412;28;20121;-84
2022/08/29 11:07:06;;;;;;;7.70;2.03;;;27.30;76.70;;;;;;4992147;28;20074;-85
2022/08/29 11:09:46;;;;;;;9.30;3.17;;;26.90;75.90;;;;;;5011559;28;20019;-84
2022/08/29 11:12:40;;;;;;;;;;;26.90;76.80;;;;;;4996175;28;20117;-84
2022/08/29 11:15:28;;;;;;;8.07;2.03;;;28.10;74.30;;;;;;4993539;28;19914;-84
2022/08/29 11:18:23;;;;;;;9.82;2.10;;;28.30;72.30;;;;;;4993013;28;20034;-84
2022/08/29 11:20:59;;;;;;;8.90;2.13;;;26.90;73.40;;;;;;4996279;28;20039;-84
2022/08/29 11:23:32;;;;;;;8.75;2.20;;;26.60;75.30;;;;;;5009288;28;20086;-84
2022/08/29 11:26:02;;;;;;;8.65;2.30;;;26.50;76.40;;;;;;4992080;28;20126;-84
2022/08/29 11:28:44;;;;;;;8.10;2.17;;;25.50;78.30;;;;;;4991736;28;20085;-84
2022/08/29 11:31:44;;;;;;;13.95;2.35;;;26.50;77.30;;;;;;4993087;28;20046;-84
2022/08/29 11:34:47;;;;;;;7.60;2.15;;;27.40;74.10;;;;;;4990172;28;20537;-84
2022/08/29 11:37:32;;;;;;;8.27;2.20;;;27.60;72.90;;;;;;4986280;28;20031;-84
2022/08/29 11:40:26;;;;;;;10.40;2.60;;;27.50;73.10;;;;;;5007104;28;20033;-84
2022/08/29 11:42:53;;;;;;;8.15;2.60;;;28.00;72.10;;;;;;5010042;28;20033;-84
2022/08/29 11:45:28;;;;;;;10.52;2.60;;;28.00;71.80;;;;;;4996912;28;20557;-84
2022/08/29 11:48:02;;;;;;;8.85;2.50;;;28.00;73.40;;;;;;4990183;28;20027;-84
2022/08/29 11:50:36;;;;;;;8.15;2.70;;;28.00;72.00;;;;;;4995165;28;20061;-84
2022/08/29 11:53:20;;;;;;;9.82;2.78;;;28.10;71.20;;;;;;4994899;28;20030;-82
2022/08/29 11:56:14;;;;;;;8.25;2.20;;;27.20;73.60;;;;;;4990060;28;20030;-83
2022/08/29 11:58:42;;;;;;;7.03;2.20;;;27.40;73.00;;;;;;4989649;28;20640;-82
2022/08/29 12:01:10;;;;;;;9.85;2.55;;;28.20;71.90;;;;;;4989182;28;20027;-82
2022/08/29 12:03:36;;;;;;;8.65;2.72;;;28.40;70.90;;;;;;4985385;28;20045;-82
2022/08/29 12:06:01;;;;;;;7.30;2.30;;;28.00;73.10;;;;;;4995940;28;20038;-81
2022/08/29 12:08:41;;;;;;;17.40;2.80;;;26.80;74.70;;;;;;4998895;28;20078;-82
2022/08/29 12:11:07;;;;;;;8.55;2.58;;;26.60;74.90;;;;;;4983267;28;20062;-82
2022/08/29 12:13:57;;;;;;;9.02;2.80;;;26.90;75.30;;;;;;4984642;28;20439;-81
2022/08/29 12:16:46;;;;;;;10.80;2.78;;;29.10;71.30;;;;;;4981714;28;20038;-82
2022/08/29 12:19:50;;;;;;;9.63;2.40;;;29.30;69.30;;;;;;4982877;28;20043;-82
2022/08/29 12:22:46;;;;;;;10.40;2.53;;;29.00;70.40;;;;;;4989641;28;20101;-82
2022/08/29 12:25:45;;;;;;;8.82;2.42;;;31.10;67.70;;;;;;4984832;28;20018;-82
2022/08/29 12:28:11;;;;;;;12.43;2.63;;;31.60;66.80;;;;;;5002657;28;20025;-82
2022/08/29 12:31:01;;;;;;;6.85;2.22;;;33.30;62.70;;;;;;4987368;28;20031;-82
2022/08/29 12:33:51;;;;;;;8.88;2.45;;;33.00;63.10;;;;;;4993216;28;20027;-82
2022/08/29 12:36:47;;;;;;;10.10;2.72;;;32.10;64.80;;;;;;4984584;28;20088;-82
2022/08/29 12:39:32;;;;;;;8.07;2.60;;;31.60;65.10;;;;;;4986691;28;20823;-82
2022/08/29 12:42:25;;;;;;;7.85;2.53;;;32.00;63.90;;;;;;5001077;28;20034;-82
2022/08/29 12:45:15;;;;;;;8.23;2.55;;;32.40;62.50;;;;;;4988021;28;20026;-82
2022/08/29 12:47:46;;;;;;;10.45;2.88;;;30.80;64.80;;;;;;4987540;28;20061;-83
2022/08/29 12:50:26;;;;;;;7.85;2.53;;;29.90;66.00;;;;;;4992917;28;20054;-82
2022/08/29 12:53:14;;;;;;;9.18;3.03;;;30.60;64.20;;;;;;4988255;28;20772;-83
2022/08/29 12:55:43;;;;;;;8.05;2.30;;;30.40;64.70;;;;;;4984470;28;20030;-82
2022/08/29 12:58:11;;;;;;;7.88;2.30;;;31.20;64.30;;;;;;4985743;28;20038;-82
2022/08/29 13:00:37;;;;;;;8.73;2.95;;;31.20;63.20;;;;;;4990697;28;20502;-82
2022/08/29 13:03:19;;;;;;;6.63;2.15;;;30.80;63.60;;;;;;4991573;28;20034;-83
2022/08/29 13:05:45;;;;;;;7.88;2.20;;;32.00;63.20;;;;;;4989051;28;20076;-83
2022/08/29 13:08:35;;;;;;;9.18;2.28;;;31.80;62.10;;;;;;4996866;28;20033;-82
2022/08/29 13:11:06;;;;;;;8.52;2.28;;;30.50;62.50;;;;;;4985759;28;20026;-82